createdAt,value
2022-08-30T00:00:00.058Z,19.22
2022-08-30T00:01:00.039Z,19.21
2022-08-30T00:02:00.039Z,19.19
2022-08-30T00:03:00.239Z,19.16
2022-08-30T00:04:00.060Z,19.14
2022-08-30T00:05:00.006Z,19.11
2022-08-30T00:05:59.988Z,19.08
2022-08-30T00:06:59.988Z,19.07
2022-08-30T00:07:59.989Z,19.04
2022-08-30T00:08:59.975Z,19.02
2022-08-30T00:09:59.953Z,18.99
2022-08-30T00:10:59.935Z,18.98
2022-08-30T00:11:59.921Z,18.95
2022-08-30T00:12:59.910Z,18.95
2022-08-30T00:13:59.930Z,18.92
2022-08-30T00:14:59.901Z,18.92
2022-08-30T00:15:59.934Z,18.90
2022-08-30T00:16:59.862Z,18.90
2022-08-30T00:17:59.871Z,18.88
2022-08-30T00:18:59.843Z,18.87
2022-08-30T00:19:59.835Z,18.84
2022-08-30T00:20:59.845Z,18.85
2022-08-30T00:21:59.803Z,18.82
2022-08-30T00:22:59.812Z,18.82
2022-08-30T00:23:59.793Z,18.81
2022-08-30T00:24:59.770Z,18.78
2022-08-30T00:25:59.765Z,18.78
2022-08-30T00:26:59.754Z,18.75
2022-08-30T00:27:59.754Z,18.73
2022-08-30T00:28:59.735Z,18.72
2022-08-30T00:29:59.723Z,18.70
2022-08-30T00:30:59.737Z,18.69
2022-08-30T00:31:59.714Z,18.67
2022-08-30T00:32:59.707Z,18.65
2022-08-30T00:33:59.678Z,18.65
2022-08-30T00:34:59.666Z,18.63
2022-08-30T00:35:59.658Z,18.62
2022-08-30T00:36:59.647Z,18.60
2022-08-30T00:37:59.639Z,18.58
2022-08-30T00:38:59.619Z,18.57
2022-08-30T00:39:59.670Z,18.55
2022-08-30T00:40:59.599Z,18.54
2022-08-30T00:41:59.610Z,18.52
2022-08-30T00:42:59.950Z,18.50
2022-08-30T00:44:00.896Z,18.50
2022-08-30T00:44:59.648Z,18.48
2022-08-30T00:45:59.604Z,18.47
2022-08-30T00:46:59.602Z,18.45
2022-08-30T00:47:59.609Z,18.44
2022-08-30T00:48:59.511Z,18.44
2022-08-30T00:49:59.502Z,18.39
2022-08-30T00:50:59.497Z,18.39
2022-08-30T00:51:59.491Z,18.37
2022-08-30T00:52:59.486Z,18.35
2022-08-30T00:53:59.492Z,18.33
2022-08-30T00:54:59.450Z,18.35
2022-08-30T00:55:59.465Z,18.33
2022-08-30T00:56:59.444Z,18.32
2022-08-30T00:57:59.426Z,18.32
2022-08-30T00:58:59.405Z,18.33
2022-08-30T00:59:59.401Z,18.30
2022-08-30T01:00:59.384Z,18.32
2022-08-30T01:01:59.424Z,18.32
2022-08-30T01:02:59.505Z,18.32
2022-08-30T01:03:59.353Z,18.33
2022-08-30T01:04:59.336Z,18.33
2022-08-30T01:05:59.334Z,18.30
2022-08-30T01:06:59.325Z,18.33
2022-08-30T01:07:59.316Z,18.33
2022-08-30T01:08:59.299Z,18.32
2022-08-30T01:09:59.288Z,18.33
2022-08-30T01:10:59.276Z,18.33
2022-08-30T01:11:59.307Z,18.33
2022-08-30T01:12:59.347Z,18.33
2022-08-30T01:13:59.250Z,18.33
2022-08-30T01:14:59.228Z,18.32
2022-08-30T01:15:59.237Z,18.33
2022-08-30T01:16:59.219Z,18.33
2022-08-30T01:17:59.200Z,18.32
2022-08-30T01:18:59.198Z,18.33
2022-08-30T01:19:59.189Z,18.32
2022-08-30T01:20:59.170Z,18.33
2022-08-30T01:21:59.171Z,18.32
2022-08-30T01:22:59.140Z,18.30
2022-08-30T01:23:59.141Z,18.30
2022-08-30T01:24:59.120Z,18.32
2022-08-30T01:25:59.112Z,18.29
2022-08-30T01:26:59.142Z,18.27
2022-08-30T01:27:59.083Z,18.29
2022-08-30T01:28:59.082Z,18.27
2022-08-30T01:29:59.074Z,18.27
2022-08-30T01:30:59.113Z,18.25
2022-08-30T01:31:59.069Z,18.25
2022-08-30T01:32:59.053Z,18.21
2022-08-30T01:33:59.024Z,18.20
2022-08-30T01:34:59.028Z,18.15
2022-08-30T01:35:59.004Z,18.14
2022-08-30T01:36:59.004Z,18.11
2022-08-30T01:37:58.985Z,18.08
2022-08-30T01:38:58.981Z,18.03
2022-08-30T01:39:59.014Z,17.99
2022-08-30T01:40:58.955Z,17.95
2022-08-30T01:41:58.946Z,17.92
2022-08-30T01:42:58.927Z,17.89
2022-08-30T01:43:58.916Z,17.84
2022-08-30T01:44:58.907Z,17.79
2022-08-30T01:45:58.914Z,17.75
2022-08-30T01:46:58.928Z,17.72
2022-08-30T01:47:59.870Z,17.72
2022-08-30T01:48:58.859Z,17.68
2022-08-30T01:49:58.858Z,17.64
2022-08-30T01:50:58.851Z,17.63
2022-08-30T01:52:01.095Z,17.59
2022-08-30T01:52:58.869Z,17.56
2022-08-30T01:53:58.817Z,17.55
2022-08-30T01:54:58.801Z,17.55
2022-08-30T01:55:58.803Z,17.52
2022-08-30T01:56:58.790Z,17.51
2022-08-30T01:57:58.768Z,17.48
2022-08-30T01:59:02.615Z,17.44
2022-08-30T01:59:58.752Z,17.43
2022-08-30T02:00:58.772Z,17.40
2022-08-30T02:01:58.735Z,17.38
2022-08-30T02:02:58.722Z,17.38
2022-08-30T02:03:58.797Z,17.36
2022-08-30T02:04:58.741Z,17.33
2022-08-30T02:05:58.695Z,17.31
2022-08-30T02:06:58.669Z,17.26
2022-08-30T02:07:58.683Z,17.25
2022-08-30T02:08:58.644Z,17.23
2022-08-30T02:09:58.643Z,17.19
2022-08-30T02:10:58.625Z,17.19
2022-08-30T02:11:58.626Z,17.16
2022-08-30T02:12:58.634Z,17.14
2022-08-30T02:13:58.626Z,17.14
2022-08-30T02:14:58.593Z,17.11
2022-08-30T02:15:58.574Z,17.07
2022-08-30T02:16:58.616Z,17.04
2022-08-30T02:17:58.577Z,17.04
2022-08-30T02:18:58.536Z,17.00
2022-08-30T02:19:58.527Z,17.00
2022-08-30T02:20:58.521Z,16.97
2022-08-30T02:21:58.508Z,16.94
2022-08-30T02:23:01.166Z,16.93
2022-08-30T02:23:58.538Z,16.89
2022-08-30T02:24:58.469Z,16.88
2022-08-30T02:25:58.470Z,16.85
2022-08-30T02:26:58.478Z,16.82
2022-08-30T02:27:58.472Z,16.82
2022-08-30T02:28:59.098Z,16.79
2022-08-30T02:29:58.419Z,16.78
2022-08-30T02:30:58.473Z,16.76
2022-08-30T02:31:58.400Z,16.73
2022-08-30T02:32:58.399Z,16.71
2022-08-30T02:33:58.409Z,16.70
2022-08-30T02:34:58.421Z,16.70
2022-08-30T02:35:58.402Z,16.67
2022-08-30T02:36:58.341Z,16.67
2022-08-30T02:37:58.351Z,16.64
2022-08-30T02:38:58.323Z,16.64
2022-08-30T02:39:58.372Z,16.64
2022-08-30T02:40:58.303Z,16.61
2022-08-30T02:41:58.293Z,16.61
2022-08-30T02:42:58.284Z,16.61
2022-08-30T02:43:58.273Z,16.61
2022-08-30T02:44:58.254Z,16.60
2022-08-30T02:45:58.291Z,16.58
2022-08-30T02:46:58.294Z,16.57
2022-08-30T02:47:58.235Z,16.57
2022-08-30T02:49:00.306Z,16.57
2022-08-30T02:49:58.214Z,16.57
2022-08-30T02:50:58.198Z,16.56
2022-08-30T02:51:58.205Z,16.53
2022-08-30T02:52:58.185Z,16.52
2022-08-30T02:53:58.186Z,16.52
2022-08-30T02:54:58.145Z,16.52
2022-08-30T02:55:58.178Z,16.50
2022-08-30T02:56:58.146Z,16.50
2022-08-30T02:57:58.126Z,16.49
2022-08-30T02:58:58.106Z,16.50
2022-08-30T02:59:58.111Z,16.49
2022-08-30T03:00:58.148Z,16.49
2022-08-30T03:01:58.098Z,16.48
2022-08-30T03:02:58.089Z,16.48
2022-08-30T03:03:58.069Z,16.48
2022-08-30T03:04:58.105Z,16.48
2022-08-30T03:05:58.044Z,16.48
2022-08-30T03:06:58.028Z,16.49
2022-08-30T03:07:58.009Z,16.49
2022-08-30T03:08:57.989Z,16.49
2022-08-30T03:09:57.999Z,16.49
2022-08-30T03:10:57.980Z,16.50
2022-08-30T03:11:57.991Z,16.52
2022-08-30T03:12:57.951Z,16.53
2022-08-30T03:13:57.952Z,16.53
2022-08-30T03:14:57.930Z,16.57
2022-08-30T03:15:57.924Z,16.57
2022-08-30T03:16:57.966Z,16.60
2022-08-30T03:17:57.959Z,16.61
2022-08-30T03:18:57.892Z,16.61
2022-08-30T03:19:57.881Z,16.64
2022-08-30T03:20:57.863Z,16.63
2022-08-30T03:21:57.882Z,16.63
2022-08-30T03:22:57.843Z,16.63
2022-08-30T03:23:57.837Z,16.60
2022-08-30T03:24:57.817Z,16.58
2022-08-30T03:25:57.804Z,16.57
2022-08-30T03:26:57.814Z,16.53
2022-08-30T03:27:57.786Z,16.52
2022-08-30T03:28:57.766Z,16.49
2022-08-30T03:29:57.803Z,16.46
2022-08-30T03:30:57.758Z,16.43
2022-08-30T03:31:57.833Z,16.41
2022-08-30T03:32:57.736Z,16.38
2022-08-30T03:33:57.716Z,16.34
2022-08-30T03:34:57.706Z,16.33
2022-08-30T03:35:57.705Z,16.33
2022-08-30T03:36:57.700Z,16.30
2022-08-30T03:37:57.708Z,16.28
2022-08-30T03:38:57.658Z,16.25
2022-08-30T03:39:57.682Z,16.24
2022-08-30T03:40:57.645Z,16.23
2022-08-30T03:41:57.640Z,16.21
2022-08-30T03:42:57.619Z,16.17
2022-08-30T03:43:59.877Z,16.17
2022-08-30T03:44:57.590Z,16.15
2022-08-30T03:45:57.637Z,16.14
2022-08-30T03:46:57.598Z,16.12
2022-08-30T03:47:57.601Z,16.12
2022-08-30T03:48:57.550Z,16.11
2022-08-30T03:49:57.558Z,16.11
2022-08-30T03:50:57.530Z,16.09
2022-08-30T03:51:57.520Z,16.09
2022-08-30T03:52:57.531Z,16.08
2022-08-30T03:53:57.511Z,16.08
2022-08-30T03:54:57.482Z,16.07
2022-08-30T03:55:57.482Z,16.07
2022-08-30T03:56:57.461Z,16.07
2022-08-30T03:57:57.475Z,16.05
2022-08-30T03:58:57.443Z,16.04
2022-08-30T03:59:57.438Z,16.04
2022-08-30T04:00:57.440Z,16.01
2022-08-30T04:01:57.451Z,16.02
2022-08-30T04:02:57.407Z,16.00
2022-08-30T04:03:57.415Z,15.97
2022-08-30T04:04:57.403Z,15.97
2022-08-30T04:05:57.395Z,15.94
2022-08-30T04:06:57.354Z,15.92
2022-08-30T04:07:57.354Z,15.90
2022-08-30T04:08:57.334Z,15.86
2022-08-30T04:09:57.326Z,15.86
2022-08-30T04:10:57.306Z,15.84
2022-08-30T04:11:57.298Z,15.84
2022-08-30T04:12:57.296Z,15.80
2022-08-30T04:13:57.278Z,15.80
2022-08-30T04:14:57.265Z,15.78
2022-08-30T04:15:57.269Z,15.76
2022-08-30T04:16:57.248Z,15.74
2022-08-30T04:17:57.247Z,15.72
2022-08-30T04:18:57.217Z,15.69
2022-08-30T04:19:57.219Z,15.69
2022-08-30T04:20:57.200Z,15.68
2022-08-30T04:21:57.207Z,15.67
2022-08-30T04:22:57.169Z,15.65
2022-08-30T04:23:57.168Z,15.65
2022-08-30T04:24:57.146Z,15.62
2022-08-30T04:25:57.150Z,15.62
2022-08-30T04:26:57.151Z,15.59
2022-08-30T04:27:57.120Z,15.57
2022-08-30T04:28:57.114Z,15.54
2022-08-30T04:29:57.103Z,15.54
2022-08-30T04:30:57.084Z,15.51
2022-08-30T04:31:57.174Z,15.50
2022-08-30T04:32:58.897Z,15.47
2022-08-30T04:33:57.052Z,15.44
2022-08-30T04:34:57.040Z,15.44
2022-08-30T04:35:57.073Z,15.39
2022-08-30T04:36:57.021Z,15.36
2022-08-30T04:37:57.013Z,15.36
2022-08-30T04:38:57.013Z,15.32
2022-08-30T04:39:57.070Z,15.31
2022-08-30T04:40:57.040Z,15.28
2022-08-30T04:41:56.984Z,15.27
2022-08-30T04:42:56.963Z,15.21
2022-08-30T04:43:56.982Z,15.20
2022-08-30T04:44:57.154Z,15.19
2022-08-30T04:45:57.006Z,15.16
2022-08-30T04:46:56.917Z,15.16
2022-08-30T04:47:57.238Z,15.13
2022-08-30T04:48:56.875Z,15.11
2022-08-30T04:49:56.882Z,15.09
2022-08-30T04:50:56.864Z,15.11
2022-08-30T04:51:56.864Z,15.07
2022-08-30T04:52:56.847Z,15.06
2022-08-30T04:53:56.894Z,15.06
2022-08-30T04:54:56.826Z,15.03
2022-08-30T04:55:56.816Z,15.03
2022-08-30T04:56:56.868Z,15.02
2022-08-30T04:57:56.795Z,15.02
2022-08-30T04:58:56.867Z,15.01
2022-08-30T04:59:56.768Z,14.99
2022-08-30T05:00:56.794Z,14.99
2022-08-30T05:01:56.770Z,15.01
2022-08-30T05:02:56.738Z,15.01
2022-08-30T05:03:56.718Z,15.01
2022-08-30T05:04:56.723Z,14.99
2022-08-30T05:05:56.690Z,15.01
2022-08-30T05:06:56.688Z,15.03
2022-08-30T05:07:56.680Z,15.03
2022-08-30T05:08:56.667Z,15.06
2022-08-30T05:09:56.650Z,15.06
2022-08-30T05:10:56.641Z,15.06
2022-08-30T05:11:56.759Z,15.09
2022-08-30T05:12:56.630Z,15.10
2022-08-30T05:13:56.620Z,15.11
2022-08-30T05:14:56.611Z,15.13
2022-08-30T05:15:56.630Z,15.16
2022-08-30T05:16:56.573Z,15.17
2022-08-30T05:17:56.573Z,15.19
2022-08-30T05:18:56.552Z,15.21
2022-08-30T05:19:56.539Z,15.21
2022-08-30T05:20:56.534Z,15.25
2022-08-30T05:21:56.515Z,15.28
2022-08-30T05:22:56.523Z,15.29
2022-08-30T05:23:56.502Z,15.31
2022-08-30T05:24:56.493Z,15.32
2022-08-30T05:25:56.473Z,15.34
2022-08-30T05:26:56.465Z,15.36
2022-08-30T05:27:56.453Z,15.38
2022-08-30T05:28:56.443Z,15.41
2022-08-30T05:29:56.437Z,15.43
2022-08-30T05:30:56.423Z,15.44
2022-08-30T05:31:56.428Z,15.47
2022-08-30T05:32:56.407Z,15.50
2022-08-30T05:33:56.436Z,15.50
2022-08-30T05:34:56.377Z,15.53
2022-08-30T05:35:56.366Z,15.53
2022-08-30T05:36:56.367Z,15.56
2022-08-30T05:37:56.356Z,15.59
2022-08-30T05:38:56.335Z,15.59
2022-08-30T05:39:56.333Z,15.62
2022-08-30T05:40:56.308Z,15.64
2022-08-30T05:41:56.307Z,15.65
2022-08-30T05:42:56.308Z,15.67
2022-08-30T05:43:56.291Z,15.69
2022-08-30T05:44:56.259Z,15.69
2022-08-30T05:45:56.259Z,15.71
2022-08-30T05:46:56.239Z,15.74
2022-08-30T05:47:56.289Z,15.75
2022-08-30T05:48:56.220Z,15.76
2022-08-30T05:49:56.213Z,15.80
2022-08-30T05:50:56.201Z,15.82
2022-08-30T05:51:56.190Z,15.83
2022-08-30T05:52:56.201Z,15.86
2022-08-30T05:53:56.171Z,15.90
2022-08-30T05:54:56.151Z,15.89
2022-08-30T05:55:56.150Z,15.93
2022-08-30T05:56:56.166Z,15.94
2022-08-30T05:57:56.124Z,16.00
2022-08-30T05:58:56.113Z,16.01
2022-08-30T05:59:56.106Z,16.04
2022-08-30T06:00:56.094Z,16.08
2022-08-30T06:01:56.132Z,16.11
2022-08-30T06:02:56.151Z,16.14
2022-08-30T06:03:58.379Z,16.20
2022-08-30T06:04:56.052Z,16.23
2022-08-30T06:05:56.047Z,16.27
2022-08-30T06:06:56.032Z,16.30
2022-08-30T06:07:56.016Z,16.34
2022-08-30T06:08:56.005Z,16.39
2022-08-30T06:09:55.994Z,16.43
2022-08-30T06:10:55.986Z,16.49
2022-08-30T06:11:55.986Z,16.56
2022-08-30T06:12:55.961Z,16.61
2022-08-30T06:13:55.946Z,16.67
2022-08-30T06:14:55.937Z,16.76
2022-08-30T06:15:56.018Z,16.86
2022-08-30T06:16:55.957Z,16.94
2022-08-30T06:17:55.910Z,17.01
2022-08-30T06:18:55.901Z,17.07
2022-08-30T06:19:55.888Z,17.16
2022-08-30T06:20:55.895Z,17.23
2022-08-30T06:21:55.878Z,17.33
2022-08-30T06:22:55.847Z,17.41
2022-08-30T06:23:55.891Z,17.49
2022-08-30T06:24:58.005Z,17.58
2022-08-30T06:25:55.823Z,17.68
2022-08-30T06:26:55.848Z,17.78
2022-08-30T06:27:56.597Z,17.92
2022-08-30T06:28:55.811Z,18.03
2022-08-30T06:29:55.771Z,18.17
2022-08-30T06:30:55.776Z,18.30
2022-08-30T06:31:55.772Z,18.45
2022-08-30T06:32:55.732Z,18.67
2022-08-30T06:33:55.732Z,18.80
2022-08-30T06:34:55.714Z,18.90
2022-08-30T06:36:00.445Z,19.06
2022-08-30T06:36:56.703Z,19.19
2022-08-30T06:37:55.692Z,19.32
2022-08-30T06:38:55.674Z,19.48
2022-08-30T06:39:55.664Z,19.62
2022-08-30T06:40:55.657Z,19.76
2022-08-30T06:41:55.657Z,19.88
2022-08-30T06:42:55.626Z,20.03
2022-08-30T06:43:55.633Z,20.20
2022-08-30T06:44:55.616Z,20.41
2022-08-30T06:45:55.597Z,20.69
2022-08-30T06:46:55.651Z,20.99
2022-08-30T06:47:55.632Z,21.21
2022-08-30T06:48:56.177Z,21.38
2022-08-30T06:49:55.586Z,21.58
2022-08-30T06:50:55.557Z,21.74
2022-08-30T06:51:55.540Z,21.88
2022-08-30T06:52:55.550Z,22.02
2022-08-30T06:53:55.521Z,22.15
2022-08-30T06:54:55.496Z,22.25
2022-08-30T06:55:55.500Z,22.37
2022-08-30T06:56:58.609Z,22.47
2022-08-30T06:57:55.472Z,22.55
2022-08-30T06:58:55.461Z,22.64
2022-08-30T06:59:57.289Z,22.73
2022-08-30T07:00:55.433Z,22.80
2022-08-30T07:01:55.520Z,22.94
2022-08-30T07:02:55.514Z,23.00
2022-08-30T07:03:55.418Z,23.09
2022-08-30T07:04:55.394Z,23.17
2022-08-30T07:05:55.396Z,23.28
2022-08-30T07:06:55.386Z,23.38
2022-08-30T07:07:55.363Z,23.46
2022-08-30T07:08:56.343Z,23.48
2022-08-30T07:09:55.336Z,23.54
2022-08-30T07:10:55.327Z,23.54
2022-08-30T07:11:55.329Z,23.51
2022-08-30T07:12:55.308Z,23.50
2022-08-30T07:13:55.310Z,23.50
2022-08-30T07:14:55.291Z,23.53
2022-08-30T07:15:55.324Z,23.55
2022-08-30T07:16:55.269Z,23.54
2022-08-30T07:17:55.262Z,23.55
2022-08-30T07:18:55.245Z,23.54
2022-08-30T07:19:55.235Z,23.51
2022-08-30T07:20:55.216Z,23.43
2022-08-30T07:21:55.212Z,22.95
2022-08-30T07:22:55.189Z,22.36
2022-08-30T07:23:55.191Z,21.79
2022-08-30T07:24:55.164Z,21.42
2022-08-30T07:25:55.176Z,21.21
2022-08-30T07:26:55.155Z,21.10
2022-08-30T07:27:55.144Z,21.14
2022-08-30T07:28:56.198Z,21.27
2022-08-30T07:29:55.127Z,21.29
2022-08-30T07:30:55.106Z,21.16
2022-08-30T07:31:55.117Z,20.95
2022-08-30T07:32:55.077Z,20.77
2022-08-30T07:33:55.076Z,20.62
2022-08-30T07:34:55.058Z,20.48
2022-08-30T07:35:55.129Z,20.33
2022-08-30T07:36:55.039Z,20.31
2022-08-30T07:37:55.051Z,20.33
2022-08-30T07:38:55.030Z,20.39
2022-08-30T07:39:55.020Z,20.47
2022-08-30T07:40:55.020Z,20.47
2022-08-30T07:41:54.992Z,20.52
2022-08-30T07:42:54.972Z,20.59
2022-08-30T07:43:54.973Z,20.61
2022-08-30T07:44:56.946Z,20.59
2022-08-30T07:45:55.108Z,20.67
2022-08-30T07:46:55.069Z,20.82
2022-08-30T07:47:54.935Z,20.88
2022-08-30T07:48:54.916Z,20.88
2022-08-30T07:49:54.906Z,20.89
2022-08-30T07:50:58.251Z,20.87
2022-08-30T07:51:55.886Z,20.84
2022-08-30T07:52:54.878Z,20.84
2022-08-30T07:53:54.867Z,20.84
2022-08-30T07:54:54.848Z,20.87
2022-08-30T07:55:54.873Z,20.89
2022-08-30T07:56:54.829Z,21.01
2022-08-30T07:57:54.831Z,21.12
2022-08-30T07:58:54.813Z,21.10
2022-08-30T07:59:54.803Z,21.10
2022-08-30T08:00:54.800Z,21.06
2022-08-30T08:01:54.818Z,21.03
2022-08-30T08:02:54.826Z,21.21
2022-08-30T08:03:54.757Z,21.54
2022-08-30T08:04:54.744Z,21.90
2022-08-30T08:05:54.742Z,22.20
2022-08-30T08:06:54.722Z,22.47
2022-08-30T08:07:54.723Z,22.52
2022-08-30T08:08:54.704Z,22.37
2022-08-30T08:09:54.724Z,22.12
2022-08-30T08:10:54.703Z,21.84
2022-08-30T08:11:54.834Z,21.69
2022-08-30T08:12:54.668Z,21.61
2022-08-30T08:13:54.679Z,21.58
2022-08-30T08:14:54.637Z,21.46
2022-08-30T08:15:54.674Z,21.46
2022-08-30T08:16:54.739Z,21.64
2022-08-30T08:17:54.598Z,21.80
2022-08-30T08:18:54.597Z,21.98
2022-08-30T08:19:54.581Z,22.17
2022-08-30T08:20:54.596Z,22.51
2022-08-30T08:22:15.289Z,22.72
2022-08-30T08:22:55.561Z,22.70
2022-08-30T08:23:54.543Z,22.62
2022-08-30T08:24:54.560Z,22.51
2022-08-30T08:25:54.591Z,22.31
2022-08-30T08:26:54.513Z,22.12
2022-08-30T08:27:54.525Z,21.99
2022-08-30T08:28:54.493Z,21.92
2022-08-30T08:29:54.474Z,21.86
2022-08-30T08:30:54.532Z,21.80
2022-08-30T08:31:54.455Z,21.82
2022-08-30T08:32:54.454Z,21.84
2022-08-30T08:33:54.461Z,22.02
2022-08-30T08:34:54.428Z,22.35
2022-08-30T08:35:54.426Z,22.65
2022-08-30T08:36:54.396Z,22.86
2022-08-30T08:37:54.388Z,22.86
2022-08-30T08:38:54.392Z,22.75
2022-08-30T08:39:54.372Z,22.62
2022-08-30T08:40:54.451Z,22.55
2022-08-30T08:41:54.350Z,22.51
2022-08-30T08:42:54.339Z,22.43
2022-08-30T08:43:54.339Z,22.35
2022-08-30T08:44:55.633Z,22.30
2022-08-30T08:45:54.365Z,22.31
2022-08-30T08:46:54.315Z,22.27
2022-08-30T08:47:54.296Z,22.21
2022-08-30T08:49:01.418Z,22.17
2022-08-30T08:49:55.263Z,22.17
2022-08-30T08:50:54.268Z,22.21
2022-08-30T08:51:54.235Z,22.24
2022-08-30T08:52:54.235Z,22.35
2022-08-30T08:53:54.215Z,22.47
2022-08-30T08:54:54.215Z,22.51
2022-08-30T08:55:54.210Z,22.52
2022-08-30T08:56:54.188Z,22.70
2022-08-30T08:57:54.180Z,22.77
2022-08-30T08:58:54.196Z,22.76
2022-08-30T08:59:54.169Z,22.76
2022-08-30T09:00:54.189Z,22.75
2022-08-30T09:01:54.217Z,22.77
2022-08-30T09:02:56.014Z,22.80
2022-08-30T09:03:54.111Z,22.77
2022-08-30T09:04:54.158Z,22.75
2022-08-30T09:05:54.113Z,22.79
2022-08-30T09:06:54.082Z,22.90
2022-08-30T09:07:54.069Z,22.91
2022-08-30T09:08:54.063Z,22.86
2022-08-30T09:09:54.042Z,22.80
2022-08-30T09:10:54.073Z,22.79
2022-08-30T09:11:54.026Z,22.85
2022-08-30T09:12:59.347Z,22.90
2022-08-30T09:13:55.004Z,22.88
2022-08-30T09:14:55.663Z,22.85
2022-08-30T09:15:55.105Z,22.83
2022-08-30T09:16:53.986Z,22.82
2022-08-30T09:17:53.960Z,22.79
2022-08-30T09:18:54.889Z,22.80
2022-08-30T09:19:53.951Z,22.75
2022-08-30T09:20:53.948Z,22.70
2022-08-30T09:21:53.928Z,22.68
2022-08-30T09:22:53.919Z,22.68
2022-08-30T09:23:53.908Z,22.79
2022-08-30T09:24:53.900Z,23.17
2022-08-30T09:25:53.901Z,23.69
2022-08-30T09:26:53.871Z,24.12
2022-08-30T09:27:53.859Z,24.42
2022-08-30T09:28:53.962Z,24.65
2022-08-30T09:29:53.846Z,25.08
2022-08-30T09:30:53.869Z,25.28
2022-08-30T09:32:10.043Z,25.33
2022-08-30T09:32:54.804Z,25.17
2022-08-30T09:33:53.785Z,25.13
2022-08-30T09:34:53.794Z,25.05
2022-08-30T09:35:54.111Z,24.96
2022-08-30T09:36:53.784Z,24.91
2022-08-30T09:37:53.759Z,24.90
2022-08-30T09:38:53.756Z,24.83
2022-08-30T09:39:53.755Z,24.65
2022-08-30T09:40:53.739Z,24.45
2022-08-30T09:41:53.718Z,24.49
2022-08-30T09:42:53.709Z,24.58
2022-08-30T09:43:53.699Z,24.83
2022-08-30T09:44:53.690Z,25.10
2022-08-30T09:45:53.729Z,25.20
2022-08-30T09:46:53.673Z,25.27
2022-08-30T09:47:53.662Z,25.28
2022-08-30T09:48:53.663Z,25.14
2022-08-30T09:49:53.634Z,24.96
2022-08-30T09:50:53.654Z,24.96
2022-08-30T09:51:53.614Z,24.99
2022-08-30T09:52:55.525Z,24.96
2022-08-30T09:54:16.611Z,24.95
2022-08-30T09:54:54.594Z,24.88
2022-08-30T09:55:53.596Z,24.65
2022-08-30T09:56:53.575Z,24.46
2022-08-30T09:57:53.556Z,24.30
2022-08-30T09:58:53.545Z,24.18
2022-08-30T09:59:53.540Z,24.12
2022-08-30T10:00:53.605Z,24.12
2022-08-30T10:01:53.519Z,24.25
2022-08-30T10:02:53.521Z,24.60
2022-08-30T10:03:53.510Z,24.95
2022-08-30T10:04:53.492Z,25.27
2022-08-30T10:05:53.591Z,25.61
2022-08-30T10:06:53.522Z,25.80
2022-08-30T10:07:53.740Z,25.95
2022-08-30T10:08:53.442Z,26.13
2022-08-30T10:09:53.442Z,26.05
2022-08-30T10:10:53.461Z,26.25
2022-08-30T10:11:53.424Z,26.35
2022-08-30T10:12:53.405Z,26.18
2022-08-30T10:13:53.418Z,25.99
2022-08-30T10:14:53.395Z,26.12
2022-08-30T10:15:53.376Z,26.20
2022-08-30T10:16:53.427Z,26.23
2022-08-30T10:17:53.368Z,26.15
2022-08-30T10:18:53.347Z,25.94
2022-08-30T10:19:53.349Z,25.76
2022-08-30T10:20:53.347Z,25.57
2022-08-30T10:21:53.330Z,25.50
2022-08-30T10:22:53.341Z,25.61
2022-08-30T10:23:53.309Z,25.79
2022-08-30T10:24:53.292Z,26.12
2022-08-30T10:25:53.312Z,26.23
2022-08-30T10:26:53.271Z,26.05
2022-08-30T10:27:53.262Z,25.85
2022-08-30T10:28:53.252Z,25.73
2022-08-30T10:29:53.274Z,25.70
2022-08-30T10:30:53.235Z,25.69
2022-08-30T10:31:53.236Z,25.60
2022-08-30T10:32:53.217Z,25.51
2022-08-30T10:33:53.205Z,25.38
2022-08-30T10:34:53.216Z,25.28
2022-08-30T10:35:53.234Z,25.24
2022-08-30T10:36:53.168Z,25.46
2022-08-30T10:37:53.167Z,25.80
2022-08-30T10:38:53.150Z,25.90
2022-08-30T10:39:53.139Z,25.87
2022-08-30T10:40:53.139Z,25.88
2022-08-30T10:41:53.130Z,25.90
2022-08-30T10:42:53.121Z,25.98
2022-08-30T10:43:53.127Z,26.48
2022-08-30T10:44:53.128Z,27.06
2022-08-30T10:45:53.092Z,27.28
2022-08-30T10:46:53.075Z,27.46
2022-08-30T10:47:53.063Z,27.46
2022-08-30T10:48:53.042Z,27.46
2022-08-30T10:49:53.043Z,27.40
2022-08-30T10:50:53.043Z,27.43
2022-08-30T10:51:53.027Z,27.41
2022-08-30T10:52:53.015Z,27.36
2022-08-30T10:53:53.025Z,27.41
2022-08-30T10:54:52.986Z,27.65
2022-08-30T10:55:53.000Z,27.78
2022-08-30T10:56:53.010Z,27.69
2022-08-30T10:57:52.966Z,27.67
2022-08-30T10:58:52.948Z,27.65
2022-08-30T10:59:52.961Z,27.69
2022-08-30T11:00:53.049Z,27.54
2022-08-30T11:01:52.956Z,27.43
2022-08-30T11:02:52.929Z,27.31
2022-08-30T11:03:52.910Z,27.14
2022-08-30T11:04:52.911Z,26.99
2022-08-30T11:05:52.951Z,26.91
2022-08-30T11:06:54.012Z,27.00
2022-08-30T11:07:52.883Z,27.18
2022-08-30T11:08:52.865Z,27.27
2022-08-30T11:09:52.846Z,27.18
2022-08-30T11:10:52.943Z,27.04
2022-08-30T11:11:52.835Z,26.97
2022-08-30T11:12:52.825Z,27.18
2022-08-30T11:13:57.002Z,27.70
2022-08-30T11:14:52.803Z,27.97
2022-08-30T11:15:52.805Z,28.24
2022-08-30T11:16:52.789Z,28.46
2022-08-30T11:17:52.787Z,28.55
2022-08-30T11:18:52.795Z,28.66
2022-08-30T11:19:52.772Z,28.81
2022-08-30T11:20:52.759Z,29.08
2022-08-30T11:21:52.729Z,28.86
2022-08-30T11:22:52.780Z,28.43
2022-08-30T11:23:52.721Z,28.30
2022-08-30T11:24:52.714Z,28.31
2022-08-30T11:25:53.370Z,28.46
2022-08-30T11:26:53.700Z,28.49
2022-08-30T11:27:52.684Z,28.51
2022-08-30T11:28:52.782Z,28.76
2022-08-30T11:29:52.663Z,28.83
2022-08-30T11:30:52.676Z,28.64
2022-08-30T11:31:52.644Z,28.41
2022-08-30T11:32:52.644Z,28.30
2022-08-30T11:33:52.655Z,28.11
2022-08-30T11:34:52.625Z,27.97
2022-08-30T11:35:52.625Z,28.06
2022-08-30T11:36:52.605Z,27.90
2022-08-30T11:37:52.595Z,27.70
2022-08-30T11:38:52.628Z,27.59
2022-08-30T11:39:52.589Z,27.75
2022-08-30T11:40:52.588Z,28.09
2022-08-30T11:41:52.569Z,28.54
2022-08-30T11:42:52.548Z,28.64
2022-08-30T11:43:53.238Z,28.56
2022-08-30T11:44:52.549Z,28.76
2022-08-30T11:45:52.719Z,28.64
2022-08-30T11:46:52.542Z,28.48
2022-08-30T11:47:52.510Z,28.39
2022-08-30T11:48:54.508Z,28.40
2022-08-30T11:49:52.494Z,28.37
2022-08-30T11:50:52.502Z,28.59
2022-08-30T11:52:08.559Z,28.77
2022-08-30T11:52:53.532Z,28.71
2022-08-30T11:53:52.469Z,28.54
2022-08-30T11:54:53.404Z,28.58
2022-08-30T11:55:52.459Z,28.77
2022-08-30T11:56:52.444Z,28.77
2022-08-30T11:57:52.430Z,28.67
2022-08-30T11:58:52.468Z,28.55
2022-08-30T11:59:52.434Z,28.30
2022-08-30T12:00:52.914Z,28.19
2022-08-30T12:01:52.457Z,28.17
2022-08-30T12:02:52.486Z,28.31
2022-08-30T12:03:52.367Z,28.55
2022-08-30T12:04:52.367Z,28.70
2022-08-30T12:05:52.369Z,28.64
2022-08-30T12:06:52.341Z,28.55
2022-08-30T12:07:52.353Z,28.74
2022-08-30T12:08:56.521Z,28.85
2022-08-30T12:09:53.345Z,28.67
2022-08-30T12:10:52.330Z,28.51
2022-08-30T12:11:52.310Z,28.41
2022-08-30T12:12:52.292Z,28.40
2022-08-30T12:13:52.329Z,28.30
2022-08-30T12:14:52.281Z,28.14
2022-08-30T12:15:52.339Z,28.04
2022-08-30T12:16:52.310Z,27.94
2022-08-30T12:17:52.363Z,27.81
2022-08-30T12:18:52.263Z,27.70
2022-08-30T12:19:52.246Z,27.72
2022-08-30T12:20:52.215Z,27.75
2022-08-30T12:21:52.202Z,27.74
2022-08-30T12:22:52.344Z,27.66
2022-08-30T12:23:52.186Z,27.59
2022-08-30T12:24:52.186Z,27.51
2022-08-30T12:25:52.166Z,27.46
2022-08-30T12:26:52.209Z,27.44
2022-08-30T12:27:52.147Z,27.41
2022-08-30T12:28:52.163Z,27.36
2022-08-30T12:29:52.142Z,27.34
2022-08-30T12:30:52.123Z,27.50
2022-08-30T12:31:52.147Z,27.74
2022-08-30T12:32:52.111Z,27.94
2022-08-30T12:33:52.092Z,28.29
2022-08-30T12:34:52.090Z,28.68
2022-08-30T12:35:52.083Z,29.05
2022-08-30T12:36:52.062Z,29.37
2022-08-30T12:37:52.064Z,29.70
2022-08-30T12:38:52.056Z,29.73
2022-08-30T12:39:52.696Z,29.46
2022-08-30T12:40:52.034Z,29.18
2022-08-30T12:41:52.015Z,28.88
2022-08-30T12:42:52.009Z,28.67
2022-08-30T12:43:52.009Z,28.54
2022-08-30T12:44:52.000Z,28.41
2022-08-30T12:45:52.037Z,28.31
2022-08-30T12:46:53.957Z,28.29
2022-08-30T12:47:52.950Z,28.27
2022-08-30T12:48:51.939Z,28.21
2022-08-30T12:49:51.949Z,28.11
2022-08-30T12:50:52.082Z,28.00
2022-08-30T12:51:51.940Z,27.92